sensor_id;sensor_type;location;lat;lon;timestamp;temperature;humidity
9201;DHT22;4635;48.686;9.008;2023-05-10T00:02:17;12.60;1.00
9201;DHT22;4635;48.686;9.008;2023-05-10T00:04:50;12.50;1.00
9201;DHT22;4635;48.686;9.008;2023-05-10T00:07:27;12.60;1.00
9201;DHT22;4635;48.686;9.008;2023-05-10T00:09:55;12.50;1.00
9201;DHT22;4635;48.686;9.008;2023-05-10T00:12:25;12.50;1.00
9201;DHT22;4635;48.686;9.008;2023-05-10T00:14:58;12.50;1.00
9201;DHT22;4635;48.686;9.008;2023-05-10T00:17:33;12.50;1.00
9201;DHT22;4635;48.686;9.008;2023-05-10T00:20:02;12.40;1.00
9201;DHT22;4635;48.686;9.008;2023-05-10T00:22:32;12.30;1.00
9201;DHT22;4635;48.686;9.008;2023-05-10T00:25:01;12.30;1.00
9201;DHT22;4635;48.686;9.008;2023-05-10T00:27:28;12.10;1.00
9201;DHT22;4635;48.686;9.008;2023-05-10T00:29:56;12.10;1.00
9201;DHT22;4635;48.686;9.008;2023-05-10T00:32:24;12.00;1.00
9201;DHT22;4635;48.686;9.008;2023-05-10T00:34:54;12.00;1.00
9201;DHT22;4635;48.686;9.008;2023-05-10T00:37:23;11.90;1.00
9201;DHT22;4635;48.686;9.008;2023-05-10T00:39:57;11.90;1.00
9201;DHT22;4635;48.686;9.008;2023-05-10T00:42:25;11.80;11.40
9201;DHT22;4635;48.686;9.008;2023-05-10T00:44:54;11.80;1.00
9201;DHT22;4635;48.686;9.008;2023-05-10T00:47:26;11.80;1.00
9201;DHT22;4635;48.686;9.008;2023-05-10T00:50:03;11.80;46.10
9201;DHT22;4635;48.686;9.008;2023-05-10T00:52:35;11.80;33.40
9201;DHT22;4635;48.686;9.008;2023-05-10T00:55:03;11.70;37.90
9201;DHT22;4635;48.686;9.008;2023-05-10T00:57:32;11.80;90.00
9201;DHT22;4635;48.686;9.008;2023-05-10T01:00:01;11.70;1.00
9201;DHT22;4635;48.686;9.008;2023-05-10T01:02:30;11.70;1.00
9201;DHT22;4635;48.686;9.008;2023-05-10T01:04:59;11.70;32.30
9201;DHT22;4635;48.686;9.008;2023-05-10T01:07:30;11.60;31.30
9201;DHT22;4635;48.686;9.008;2023-05-10T01:10:00;11.70;78.40
9201;DHT22;4635;48.686;9.008;2023-05-10T01:12:30;11.70;1.00
9201;DHT22;4635;48.686;9.008;2023-05-10T01:14:57;11.70;28.80
9201;DHT22;4635;48.686;9.008;2023-05-10T01:17:27;11.70;99.90
9201;DHT22;4635;48.686;9.008;2023-05-10T01:19:57;11.70;55.00
9201;DHT22;4635;48.686;9.008;2023-05-10T01:22:42;11.70;18.10
9201;DHT22;4635;48.686;9.008;2023-05-10T01:25:22;11.70;94.20
9201;DHT22;4635;48.686;9.008;2023-05-10T01:28:06;11.70;68.40
9201;DHT22;4635;48.686;9.008;2023-05-10T01:30:42;11.70;1.00
9201;DHT22;4635;48.686;9.008;2023-05-10T01:33:18;11.60;3.40
9201;DHT22;4635;48.686;9.008;2023-05-10T01:35:51;11.60;1.00
9201;DHT22;4635;48.686;9.008;2023-05-10T01:38:26;11.70;1.00
9201;DHT22;4635;48.686;9.008;2023-05-10T01:41:01;11.60;1.00
9201;DHT22;4635;48.686;9.008;2023-05-10T01:43:32;11.70;1.00
9201;DHT22;4635;48.686;9.008;2023-05-10T01:46:04;11.70;1.00
9201;DHT22;4635;48.686;9.008;2023-05-10T01:48:38;11.70;1.00
9201;DHT22;4635;48.686;9.008;2023-05-10T01:51:12;11.60;1.00
9201;DHT22;4635;48.686;9.008;2023-05-10T01:53:43;11.60;1.00
9201;DHT22;4635;48.686;9.008;2023-05-10T01:56:12;11.60;1.00
9201;DHT22;4635;48.686;9.008;2023-05-10T01:58:49;11.60;1.00
9201;DHT22;4635;48.686;9.008;2023-05-10T02:01:22;11.60;1.00
9201;DHT22;4635;48.686;9.008;2023-05-10T02:03:53;11.60;1.00
9201;DHT22;4635;48.686;9.008;2023-05-10T02:06:24;11.70;1.00
9201;DHT22;4635;48.686;9.008;2023-05-10T02:08:58;11.60;1.00
9201;DHT22;4635;48.686;9.008;2023-05-10T02:11:28;11.50;1.00
9201;DHT22;4635;48.686;9.008;2023-05-10T02:13:58;11.40;1.00
9201;DHT22;4635;48.686;9.008;2023-05-10T02:16:26;11.50;1.00
9201;DHT22;4635;48.686;9.008;2023-05-10T02:18:58;11.60;1.00
9201;DHT22;4635;48.686;9.008;2023-05-10T02:21:28;11.50;1.00
9201;DHT22;4635;48.686;9.008;2023-05-10T02:23:56;11.40;1.00
9201;DHT22;4635;48.686;9.008;2023-05-10T02:26:24;11.40;1.00
9201;DHT22;4635;48.686;9.008;2023-05-10T02:28:54;11.40;1.00
9201;DHT22;4635;48.686;9.008;2023-05-10T02:31:22;11.40;1.00
9201;DHT22;4635;48.686;9.008;2023-05-10T02:33:51;11.30;1.00
9201;DHT22;4635;48.686;9.008;2023-05-10T02:36:21;11.30;1.00
9201;DHT22;4635;48.686;9.008;2023-05-10T02:38:49;11.30;1.00
9201;DHT22;4635;48.686;9.008;2023-05-10T02:41:20;11.30;1.00
9201;DHT22;4635;48.686;9.008;2023-05-10T02:43:48;11.20;1.00
9201;DHT22;4635;48.686;9.008;2023-05-10T02:46:16;11.20;1.00
9201;DHT22;4635;48.686;9.008;2023-05-10T02:48:46;11.30;1.00
9201;DHT22;4635;48.686;9.008;2023-05-10T02:51:13;11.20;1.00
9201;DHT22;4635;48.686;9.008;2023-05-10T02:53:49;11.30;1.00
9201;DHT22;4635;48.686;9.008;2023-05-10T02:56:25;11.30;1.00
9201;DHT22;4635;48.686;9.008;2023-05-10T02:58:56;11.30;1.00
9201;DHT22;4635;48.686;9.008;2023-05-10T03:01:23;11.30;1.00
9201;DHT22;4635;48.686;9.008;2023-05-10T03:03:52;11.40;1.00
9201;DHT22;4635;48.686;9.008;2023-05-10T03:06:20;11.40;1.00
9201;DHT22;4635;48.686;9.008;2023-05-10T03:08:55;11.30;1.00
9201;DHT22;4635;48.686;9.008;2023-05-10T03:11:28;11.30;1.00
9201;DHT22;4635;48.686;9.008;2023-05-10T03:14:06;11.40;1.00
9201;DHT22;4635;48.686;9.008;2023-05-10T03:16:38;11.30;1.00
9201;DHT22;4635;48.686;9.008;2023-05-10T03:19:09;11.30;1.00
9201;DHT22;4635;48.686;9.008;2023-05-10T03:21:39;11.30;1.00
9201;DHT22;4635;48.686;9.008;2023-05-10T03:24:14;11.20;1.00
9201;DHT22;4635;48.686;9.008;2023-05-10T03:26:43;11.30;1.00
9201;DHT22;4635;48.686;9.008;2023-05-10T03:29:11;11.20;1.00
9201;DHT22;4635;48.686;9.008;2023-05-10T03:31:49;11.20;1.00
9201;DHT22;4635;48.686;9.008;2023-05-10T03:34:35;11.20;1.00
9201;DHT22;4635;48.686;9.008;2023-05-10T03:40:47;11.30;1.00
9201;DHT22;4635;48.686;9.008;2023-05-10T03:43:15;11.40;1.00
9201;DHT22;4635;48.686;9.008;2023-05-10T03:45:43;11.30;1.00
9201;DHT22;4635;48.686;9.008;2023-05-10T03:48:11;11.20;1.00
9201;DHT22;4635;48.686;9.008;2023-05-10T03:50:40;11.20;1.00
9201;DHT22;4635;48.686;9.008;2023-05-10T03:53:08;11.20;1.00
9201;DHT22;4635;48.686;9.008;2023-05-10T03:55:36;11.20;1.00
9201;DHT22;4635;48.686;9.008;2023-05-10T04:00:52;11.20;1.00
9201;DHT22;4635;48.686;9.008;2023-05-10T04:03:20;11.20;1.00
9201;DHT22;4635;48.686;9.008;2023-05-10T04:05:49;11.10;1.00
9201;DHT22;4635;48.686;9.008;2023-05-10T04:08:40;11.10;1.00
9201;DHT22;4635;48.686;9.008;2023-05-10T04:11:14;11.10;1.00
9201;DHT22;4635;48.686;9.008;2023-05-10T04:13:44;11.10;1.00
9201;DHT22;4635;48.686;9.008;2023-05-10T04:16:18;11.00;1.00
9201;DHT22;4635;48.686;9.008;2023-05-10T04:18:53;11.10;1.00
9201;DHT22;4635;48.686;9.008;2023-05-10T04:21:21;11.10;1.00
9201;DHT22;4635;48.686;9.008;2023-05-10T04:23:49;11.00;1.00
9201;DHT22;4635;48.686;9.008;2023-05-10T04:26:20;11.00;1.00
9201;DHT22;4635;48.686;9.008;2023-05-10T04:28:51;11.00;1.00
9201;DHT22;4635;48.686;9.008;2023-05-10T04:31:20;11.10;1.00
9201;DHT22;4635;48.686;9.008;2023-05-10T04:33:48;11.10;1.00
9201;DHT22;4635;48.686;9.008;2023-05-10T04:36:16;11.10;1.00
9201;DHT22;4635;48.686;9.008;2023-05-10T04:38:45;11.10;1.00
9201;DHT22;4635;48.686;9.008;2023-05-10T04:41:20;11.20;1.00
9201;DHT22;4635;48.686;9.008;2023-05-10T04:43:48;11.10;1.00
9201;DHT22;4635;48.686;9.008;2023-05-10T04:55:19;11.20;1.00
9201;DHT22;4635;48.686;9.008;2023-05-10T04:57:59;11.30;1.00
9201;DHT22;4635;48.686;9.008;2023-05-10T05:00:40;11.30;1.00
9201;DHT22;4635;48.686;9.008;2023-05-10T05:03:09;11.20;1.00
9201;DHT22;4635;48.686;9.008;2023-05-10T05:05:42;11.30;1.00
9201;DHT22;4635;48.686;9.008;2023-05-10T05:08:26;11.30;99.90
9201;DHT22;4635;48.686;9.008;2023-05-10T05:14:00;11.40;91.10
9201;DHT22;4635;48.686;9.008;2023-05-10T05:16:32;11.40;87.50
9201;DHT22;4635;48.686;9.008;2023-05-10T05:19:05;11.40;12.00
9201;DHT22;4635;48.686;9.008;2023-05-10T05:21:54;11.40;1.00
9201;DHT22;4635;48.686;9.008;2023-05-10T05:34:09;11.40;1.00
9201;DHT22;4635;48.686;9.008;2023-05-10T05:36:43;11.40;1.00
9201;DHT22;4635;48.686;9.008;2023-05-10T05:39:28;11.40;1.00
9201;DHT22;4635;48.686;9.008;2023-05-10T05:42:09;11.50;1.00
9201;DHT22;4635;48.686;9.008;2023-05-10T05:47:59;11.60;1.00
9201;DHT22;4635;48.686;9.008;2023-05-10T06:00:25;11.80;40.90
9201;DHT22;4635;48.686;9.008;2023-05-10T06:03:05;11.80;33.90
9201;DHT22;4635;48.686;9.008;2023-05-10T06:05:58;11.90;21.80
9201;DHT22;4635;48.686;9.008;2023-05-10T06:10:52;11.90;1.00
9201;DHT22;4635;48.686;9.008;2023-05-10T06:13:26;12.10;1.00
9201;DHT22;4635;48.686;9.008;2023-05-10T06:22:37;12.30;1.00
9201;DHT22;4635;48.686;9.008;2023-05-10T06:25:21;12.50;1.00
9201;DHT22;4635;48.686;9.008;2023-05-10T06:27:53;12.60;1.00
9201;DHT22;4635;48.686;9.008;2023-05-10T06:30:27;12.70;1.00
9201;DHT22;4635;48.686;9.008;2023-05-10T06:32:59;12.80;1.00
9201;DHT22;4635;48.686;9.008;2023-05-10T06:35:40;12.90;1.00
9201;DHT22;4635;48.686;9.008;2023-05-10T06:41:10;12.70;1.00
9201;DHT22;4635;48.686;9.008;2023-05-10T06:43:38;12.70;1.00
9201;DHT22;4635;48.686;9.008;2023-05-10T06:46:19;12.70;1.00
9201;DHT22;4635;48.686;9.008;2023-05-10T06:48:57;12.80;1.00
9201;DHT22;4635;48.686;9.008;2023-05-10T09:46:39;16.50;99.90
9201;DHT22;4635;48.686;9.008;2023-05-10T09:54:44;17.70;99.90
9201;DHT22;4635;48.686;9.008;2023-05-10T09:57:20;17.80;1.00
9201;DHT22;4635;48.686;9.008;2023-05-10T10:03:11;17.80;1.00
9201;DHT22;4635;48.686;9.008;2023-05-10T10:06:02;18.10;99.90
9201;DHT22;4635;48.686;9.008;2023-05-10T10:09:07;18.20;99.90
9201;DHT22;4635;48.686;9.008;2023-05-10T10:11:49;18.00;99.90
9201;DHT22;4635;48.686;9.008;2023-05-10T10:14:36;18.20;99.90
9201;DHT22;4635;48.686;9.008;2023-05-10T10:22:39;19.50;99.90
9201;DHT22;4635;48.686;9.008;2023-05-10T10:25:21;19.90;99.90
9201;DHT22;4635;48.686;9.008;2023-05-10T10:28:12;19.80;89.80
9201;DHT22;4635;48.686;9.008;2023-05-10T10:31:16;19.50;1.00
9201;DHT22;4635;48.686;9.008;2023-05-10T10:34:28;19.40;1.00
9201;DHT22;4635;48.686;9.008;2023-05-10T11:11:01;14.20;99.90
9201;DHT22;4635;48.686;9.008;2023-05-10T11:13:48;14.30;99.90
9201;DHT22;4635;48.686;9.008;2023-05-10T11:16:40;14.60;99.90
9201;DHT22;4635;48.686;9.008;2023-05-10T11:19:17;14.80;99.90
9201;DHT22;4635;48.686;9.008;2023-05-10T11:22:13;14.70;1.00
9201;DHT22;4635;48.686;9.008;2023-05-10T11:24:57;14.60;99.90
9201;DHT22;4635;48.686;9.008;2023-05-10T11:30:19;14.70;99.90
9201;DHT22;4635;48.686;9.008;2023-05-10T11:33:24;14.90;99.90
9201;DHT22;4635;48.686;9.008;2023-05-10T11:36:08;15.10;99.90
9201;DHT22;4635;48.686;9.008;2023-05-10T11:39:10;15.40;1.00
9201;DHT22;4635;48.686;9.008;2023-05-10T11:41:56;15.70;1.00
9201;DHT22;4635;48.686;9.008;2023-05-10T11:44:49;15.90;1.00
9201;DHT22;4635;48.686;9.008;2023-05-10T11:53:25;16.70;1.00
9201;DHT22;4635;48.686;9.008;2023-05-10T11:58:57;17.20;1.00
9201;DHT22;4635;48.686;9.008;2023-05-10T12:01:41;17.20;1.00
9201;DHT22;4635;48.686;9.008;2023-05-10T12:04:20;17.30;1.00
9201;DHT22;4635;48.686;9.008;2023-05-10T12:07:17;17.70;1.00
9201;DHT22;4635;48.686;9.008;2023-05-10T12:13:19;17.70;99.90
9201;DHT22;4635;48.686;9.008;2023-05-10T12:19:13;16.80;1.00
9201;DHT22;4635;48.686;9.008;2023-05-10T12:22:02;16.70;1.00
9201;DHT22;4635;48.686;9.008;2023-05-10T12:24:45;16.60;1.00
9201;DHT22;4635;48.686;9.008;2023-05-10T13:13:25;17.50;99.90
9201;DHT22;4635;48.686;9.008;2023-05-10T13:16:12;17.50;99.90
9201;DHT22;4635;48.686;9.008;2023-05-10T13:18:54;17.70;39.40
9201;DHT22;4635;48.686;9.008;2023-05-10T13:25:01;17.20;1.00
9201;DHT22;4635;48.686;9.008;2023-05-10T13:27:59;17.10;1.00
9201;DHT22;4635;48.686;9.008;2023-05-10T13:33:32;16.80;98.60
9201;DHT22;4635;48.686;9.008;2023-05-10T13:36:16;16.90;1.00
9201;DHT22;4635;48.686;9.008;2023-05-10T13:39:19;17.20;1.00
9201;DHT22;4635;48.686;9.008;2023-05-10T13:42:10;17.40;1.00
9201;DHT22;4635;48.686;9.008;2023-05-10T13:48:40;17.60;1.00
9201;DHT22;4635;48.686;9.008;2023-05-10T14:02:57;17.10;1.00
9201;DHT22;4635;48.686;9.008;2023-05-10T14:08:46;16.90;1.00
9201;DHT22;4635;48.686;9.008;2023-05-10T14:14:40;17.10;1.00
9201;DHT22;4635;48.686;9.008;2023-05-10T14:17:28;17.40;1.00
9201;DHT22;4635;48.686;9.008;2023-05-10T14:28:56;17.10;5.20
9201;DHT22;4635;48.686;9.008;2023-05-10T14:31:26;17.50;1.00
9201;DHT22;4635;48.686;9.008;2023-05-10T14:34:11;17.50;1.00
9201;DHT22;4635;48.686;9.008;2023-05-10T14:36:54;17.70;1.00
9201;DHT22;4635;48.686;9.008;2023-05-10T14:43:12;18.00;1.00
9201;DHT22;4635;48.686;9.008;2023-05-10T14:51:44;17.60;1.00
9201;DHT22;4635;48.686;9.008;2023-05-10T14:54:28;17.60;1.00
9201;DHT22;4635;48.686;9.008;2023-05-10T14:57:28;17.30;1.00
9201;DHT22;4635;48.686;9.008;2023-05-10T15:00:08;17.30;1.00
9201;DHT22;4635;48.686;9.008;2023-05-10T15:05:56;17.30;1.00
9201;DHT22;4635;48.686;9.008;2023-05-10T16:14:17;16.50;1.00
9201;DHT22;4635;48.686;9.008;2023-05-10T16:17:15;16.40;1.00
9201;DHT22;4635;48.686;9.008;2023-05-10T16:20:11;16.50;1.00
9201;DHT22;4635;48.686;9.008;2023-05-10T16:23:03;16.60;1.00
9201;DHT22;4635;48.686;9.008;2023-05-10T16:25:47;16.20;1.00
9201;DHT22;4635;48.686;9.008;2023-05-10T16:28:16;16.10;1.00
9201;DHT22;4635;48.686;9.008;2023-05-10T16:39:32;15.60;1.00
9201;DHT22;4635;48.686;9.008;2023-05-10T16:42:00;15.60;1.00
9201;DHT22;4635;48.686;9.008;2023-05-10T16:44:41;15.50;1.00
9201;DHT22;4635;48.686;9.008;2023-05-10T16:47:33;15.50;1.00
9201;DHT22;4635;48.686;9.008;2023-05-10T16:50:13;15.30;1.00
9201;DHT22;4635;48.686;9.008;2023-05-10T16:52:54;15.20;1.00
9201;DHT22;4635;48.686;9.008;2023-05-10T17:03:50;14.50;1.00
9201;DHT22;4635;48.686;9.008;2023-05-10T17:06:39;14.40;1.00
9201;DHT22;4635;48.686;9.008;2023-05-10T17:09:30;14.30;1.00
9201;DHT22;4635;48.686;9.008;2023-05-10T17:12:02;14.30;1.00
9201;DHT22;4635;48.686;9.008;2023-05-10T17:14:43;14.20;1.00
9201;DHT22;4635;48.686;9.008;2023-05-10T17:17:23;14.20;1.00
9201;DHT22;4635;48.686;9.008;2023-05-10T17:19:55;14.20;1.00
9201;DHT22;4635;48.686;9.008;2023-05-10T17:22:26;14.10;1.00
9201;DHT22;4635;48.686;9.008;2023-05-10T17:24:58;14.10;1.00
9201;DHT22;4635;48.686;9.008;2023-05-10T17:27:36;14.20;1.00
9201;DHT22;4635;48.686;9.008;2023-05-10T17:30:18;14.00;1.00
9201;DHT22;4635;48.686;9.008;2023-05-10T17:33:02;13.90;1.00
9201;DHT22;4635;48.686;9.008;2023-05-10T17:35:54;13.90;1.00
9201;DHT22;4635;48.686;9.008;2023-05-10T17:38:22;13.80;1.00
9201;DHT22;4635;48.686;9.008;2023-05-10T17:40:54;13.60;1.00
9201;DHT22;4635;48.686;9.008;2023-05-10T17:43:35;13.60;1.00
9201;DHT22;4635;48.686;9.008;2023-05-10T17:46:04;13.60;1.00
9201;DHT22;4635;48.686;9.008;2023-05-10T17:48:45;13.60;7.20
9201;DHT22;4635;48.686;9.008;2023-05-10T17:51:37;13.50;13.30
9201;DHT22;4635;48.686;9.008;2023-05-10T17:54:24;13.40;33.00
9201;DHT22;4635;48.686;9.008;2023-05-10T17:57:15;13.30;39.50
9201;DHT22;4635;48.686;9.008;2023-05-10T17:59:53;13.10;55.40
9201;DHT22;4635;48.686;9.008;2023-05-10T18:02:21;13.00;58.20
9201;DHT22;4635;48.686;9.008;2023-05-10T18:04:53;12.90;77.70
9201;DHT22;4635;48.686;9.008;2023-05-10T18:10:37;12.70;81.80
9201;DHT22;4635;48.686;9.008;2023-05-10T18:13:19;12.70;76.70
9201;DHT22;4635;48.686;9.008;2023-05-10T18:15:48;12.70;71.60
9201;DHT22;4635;48.686;9.008;2023-05-10T18:18:16;12.70;78.30
9201;DHT22;4635;48.686;9.008;2023-05-10T18:20:44;12.70;92.40
9201;DHT22;4635;48.686;9.008;2023-05-10T18:23:11;12.70;99.90
9201;DHT22;4635;48.686;9.008;2023-05-10T18:25:43;12.60;99.90
9201;DHT22;4635;48.686;9.008;2023-05-10T18:28:11;12.40;99.90
9201;DHT22;4635;48.686;9.008;2023-05-10T18:30:46;12.40;99.90
9201;DHT22;4635;48.686;9.008;2023-05-10T18:33:15;12.20;99.90
9201;DHT22;4635;48.686;9.008;2023-05-10T18:35:47;12.30;99.90
9201;DHT22;4635;48.686;9.008;2023-05-10T18:38:15;12.30;99.90
9201;DHT22;4635;48.686;9.008;2023-05-10T18:40:47;12.40;99.90
9201;DHT22;4635;48.686;9.008;2023-05-10T18:43:15;12.50;99.90
9201;DHT22;4635;48.686;9.008;2023-05-10T18:45:55;12.50;99.90
9201;DHT22;4635;48.686;9.008;2023-05-10T18:48:26;12.50;99.90
9201;DHT22;4635;48.686;9.008;2023-05-10T18:50:54;12.50;99.00
9201;DHT22;4635;48.686;9.008;2023-05-10T18:53:42;12.50;99.40
9201;DHT22;4635;48.686;9.008;2023-05-10T18:56:12;12.60;93.70
9201;DHT22;4635;48.686;9.008;2023-05-10T18:58:50;12.60;99.90
9201;DHT22;4635;48.686;9.008;2023-05-10T19:01:19;12.70;82.40
9201;DHT22;4635;48.686;9.008;2023-05-10T19:03:50;12.60;79.40
9201;DHT22;4635;48.686;9.008;2023-05-10T19:06:17;12.60;81.20
9201;DHT22;4635;48.686;9.008;2023-05-10T19:08:45;12.60;84.90
9201;DHT22;4635;48.686;9.008;2023-05-10T19:11:14;12.70;84.00
9201;DHT22;4635;48.686;9.008;2023-05-10T19:13:43;12.60;87.70
9201;DHT22;4635;48.686;9.008;2023-05-10T19:16:17;12.50;90.10
9201;DHT22;4635;48.686;9.008;2023-05-10T19:18:45;12.50;83.80
9201;DHT22;4635;48.686;9.008;2023-05-10T19:21:12;12.50;93.00
9201;DHT22;4635;48.686;9.008;2023-05-10T19:23:50;12.60;93.80
9201;DHT22;4635;48.686;9.008;2023-05-10T19:26:21;12.50;91.50
9201;DHT22;4635;48.686;9.008;2023-05-10T19:28:49;12.50;85.50
9201;DHT22;4635;48.686;9.008;2023-05-10T19:31:18;12.40;71.90
9201;DHT22;4635;48.686;9.008;2023-05-10T19:33:46;12.40;77.50
9201;DHT22;4635;48.686;9.008;2023-05-10T19:36:13;12.50;77.90
9201;DHT22;4635;48.686;9.008;2023-05-10T19:38:40;12.50;71.70
9201;DHT22;4635;48.686;9.008;2023-05-10T19:41:09;12.50;76.10
9201;DHT22;4635;48.686;9.008;2023-05-10T19:43:41;12.50;81.20
9201;DHT22;4635;48.686;9.008;2023-05-10T19:46:09;12.40;78.10
9201;DHT22;4635;48.686;9.008;2023-05-10T19:48:38;12.30;82.30
9201;DHT22;4635;48.686;9.008;2023-05-10T19:51:08;12.30;86.90
9201;DHT22;4635;48.686;9.008;2023-05-10T19:53:42;12.20;87.40
9201;DHT22;4635;48.686;9.008;2023-05-10T19:56:10;12.20;87.00
9201;DHT22;4635;48.686;9.008;2023-05-10T19:58:40;12.20;78.40
9201;DHT22;4635;48.686;9.008;2023-05-10T20:01:07;12.20;76.40
9201;DHT22;4635;48.686;9.008;2023-05-10T20:03:39;12.30;80.80
9201;DHT22;4635;48.686;9.008;2023-05-10T20:06:06;12.30;74.00
9201;DHT22;4635;48.686;9.008;2023-05-10T20:08:37;12.30;65.60
9201;DHT22;4635;48.686;9.008;2023-05-10T20:11:12;12.20;72.10
9201;DHT22;4635;48.686;9.008;2023-05-10T20:13:48;12.20;65.50
9201;DHT22;4635;48.686;9.008;2023-05-10T20:16:24;12.20;72.60
9201;DHT22;4635;48.686;9.008;2023-05-10T20:18:53;12.20;74.80
9201;DHT22;4635;48.686;9.008;2023-05-10T20:21:23;12.10;81.10
9201;DHT22;4635;48.686;9.008;2023-05-10T20:23:54;12.10;90.60
9201;DHT22;4635;48.686;9.008;2023-05-10T20:26:22;12.00;91.80
9201;DHT22;4635;48.686;9.008;2023-05-10T20:28:53;12.00;93.40
9201;DHT22;4635;48.686;9.008;2023-05-10T20:31:22;12.00;97.10
9201;DHT22;4635;48.686;9.008;2023-05-10T20:33:51;12.00;98.10
9201;DHT22;4635;48.686;9.008;2023-05-10T20:36:20;11.90;99.90
9201;DHT22;4635;48.686;9.008;2023-05-10T20:38:58;11.90;99.90
9201;DHT22;4635;48.686;9.008;2023-05-10T20:41:30;11.90;99.90
9201;DHT22;4635;48.686;9.008;2023-05-10T20:44:03;11.90;99.90
9201;DHT22;4635;48.686;9.008;2023-05-10T20:46:39;11.80;99.90
9201;DHT22;4635;48.686;9.008;2023-05-10T20:49:14;11.90;99.90
9201;DHT22;4635;48.686;9.008;2023-05-10T20:51:44;11.80;99.90
9201;DHT22;4635;48.686;9.008;2023-05-10T20:54:23;11.80;99.90
9201;DHT22;4635;48.686;9.008;2023-05-10T20:56:52;11.80;99.90
9201;DHT22;4635;48.686;9.008;2023-05-10T20:59:26;11.80;99.90
9201;DHT22;4635;48.686;9.008;2023-05-10T21:02:03;11.70;99.90
9201;DHT22;4635;48.686;9.008;2023-05-10T21:04:45;11.70;99.90
9201;DHT22;4635;48.686;9.008;2023-05-10T21:07:16;11.70;99.90
9201;DHT22;4635;48.686;9.008;2023-05-10T21:09:45;11.60;99.90
9201;DHT22;4635;48.686;9.008;2023-05-10T21:12:14;11.60;99.90
9201;DHT22;4635;48.686;9.008;2023-05-10T21:14:46;11.50;99.90
9201;DHT22;4635;48.686;9.008;2023-05-10T21:17:15;11.40;99.90
9201;DHT22;4635;48.686;9.008;2023-05-10T21:19:45;11.40;99.90
9201;DHT22;4635;48.686;9.008;2023-05-10T21:22:14;11.30;99.90
9201;DHT22;4635;48.686;9.008;2023-05-10T21:24:43;11.30;99.90
9201;DHT22;4635;48.686;9.008;2023-05-10T21:27:12;11.30;99.90
9201;DHT22;4635;48.686;9.008;2023-05-10T21:29:43;11.30;99.90
9201;DHT22;4635;48.686;9.008;2023-05-10T21:32:28;11.20;99.90
9201;DHT22;4635;48.686;9.008;2023-05-10T21:34:57;11.20;99.90
9201;DHT22;4635;48.686;9.008;2023-05-10T21:37:27;11.20;99.90
9201;DHT22;4635;48.686;9.008;2023-05-10T21:39:56;11.20;99.90
9201;DHT22;4635;48.686;9.008;2023-05-10T21:42:26;11.20;99.90
9201;DHT22;4635;48.686;9.008;2023-05-10T21:44:56;11.20;99.90
9201;DHT22;4635;48.686;9.008;2023-05-10T21:47:27;11.10;99.90
9201;DHT22;4635;48.686;9.008;2023-05-10T21:49:58;11.10;99.90
9201;DHT22;4635;48.686;9.008;2023-05-10T21:52:27;11.10;99.90
9201;DHT22;4635;48.686;9.008;2023-05-10T21:54:58;11.00;99.90
9201;DHT22;4635;48.686;9.008;2023-05-10T21:57:31;11.00;99.90
9201;DHT22;4635;48.686;9.008;2023-05-10T22:00:01;11.00;99.90
9201;DHT22;4635;48.686;9.008;2023-05-10T22:02:35;10.90;99.90
9201;DHT22;4635;48.686;9.008;2023-05-10T22:05:04;10.90;99.90
9201;DHT22;4635;48.686;9.008;2023-05-10T22:07:33;10.80;99.90
9201;DHT22;4635;48.686;9.008;2023-05-10T22:10:12;10.80;99.90
9201;DHT22;4635;48.686;9.008;2023-05-10T22:12:50;10.90;99.90
9201;DHT22;4635;48.686;9.008;2023-05-10T22:15:22;10.90;99.90
9201;DHT22;4635;48.686;9.008;2023-05-10T22:18:01;10.90;99.90
9201;DHT22;4635;48.686;9.008;2023-05-10T22:20:31;10.90;99.90
9201;DHT22;4635;48.686;9.008;2023-05-10T22:23:01;10.90;99.90
9201;DHT22;4635;48.686;9.008;2023-05-10T22:25:37;10.90;99.90
9201;DHT22;4635;48.686;9.008;2023-05-10T22:28:15;10.80;99.90
9201;DHT22;4635;48.686;9.008;2023-05-10T22:30:44;10.80;99.90
9201;DHT22;4635;48.686;9.008;2023-05-10T22:33:16;10.80;99.90
9201;DHT22;4635;48.686;9.008;2023-05-10T22:35:58;10.80;99.90
9201;DHT22;4635;48.686;9.008;2023-05-10T22:38:31;10.70;99.90
9201;DHT22;4635;48.686;9.008;2023-05-10T22:41:11;10.80;99.90
9201;DHT22;4635;48.686;9.008;2023-05-10T22:43:43;10.80;99.90
9201;DHT22;4635;48.686;9.008;2023-05-10T22:46:15;10.80;99.90
9201;DHT22;4635;48.686;9.008;2023-05-10T22:48:46;10.80;99.90
9201;DHT22;4635;48.686;9.008;2023-05-10T22:51:16;10.80;99.90
9201;DHT22;4635;48.686;9.008;2023-05-10T22:53:44;10.80;99.90
9201;DHT22;4635;48.686;9.008;2023-05-10T22:56:14;10.80;99.90
9201;DHT22;4635;48.686;9.008;2023-05-10T22:58:43;10.80;99.90
9201;DHT22;4635;48.686;9.008;2023-05-10T23:01:14;10.80;99.90
9201;DHT22;4635;48.686;9.008;2023-05-10T23:03:47;10.80;99.90
9201;DHT22;4635;48.686;9.008;2023-05-10T23:06:15;10.70;99.90
9201;DHT22;4635;48.686;9.008;2023-05-10T23:08:45;10.80;99.90
9201;DHT22;4635;48.686;9.008;2023-05-10T23:11:14;10.80;99.90
9201;DHT22;4635;48.686;9.008;2023-05-10T23:13:43;10.70;99.90
9201;DHT22;4635;48.686;9.008;2023-05-10T23:16:13;10.70;99.90
9201;DHT22;4635;48.686;9.008;2023-05-10T23:18:57;10.70;99.90
9201;DHT22;4635;48.686;9.008;2023-05-10T23:21:28;10.70;99.90
9201;DHT22;4635;48.686;9.008;2023-05-10T23:23:58;10.70;99.90
9201;DHT22;4635;48.686;9.008;2023-05-10T23:26:30;10.70;99.90
9201;DHT22;4635;48.686;9.008;2023-05-10T23:29:00;10.60;99.90
9201;DHT22;4635;48.686;9.008;2023-05-10T23:31:30;10.60;99.90
9201;DHT22;4635;48.686;9.008;2023-05-10T23:34:03;10.60;99.90
9201;DHT22;4635;48.686;9.008;2023-05-10T23:36:31;10.60;99.90
9201;DHT22;4635;48.686;9.008;2023-05-10T23:39:01;10.60;99.90
9201;DHT22;4635;48.686;9.008;2023-05-10T23:41:32;10.60;99.90
9201;DHT22;4635;48.686;9.008;2023-05-10T23:44:03;10.60;99.90
9201;DHT22;4635;48.686;9.008;2023-05-10T23:46:32;10.70;99.90
9201;DHT22;4635;48.686;9.008;2023-05-10T23:49:04;10.70;99.90
9201;DHT22;4635;48.686;9.008;2023-05-10T23:51:34;10.70;99.90
9201;DHT22;4635;48.686;9.008;2023-05-10T23:54:03;10.70;99.90
9201;DHT22;4635;48.686;9.008;2023-05-10T23:56:37;10.60;1.00
9201;DHT22;4635;48.686;9.008;2023-05-10T23:59:06;10.60;1.00
